createdAt,value
2023-05-12T00:02:02.432Z,3.80
2023-05-12T00:04:31.159Z,3.50
2023-05-12T00:06:59.744Z,3.75
2023-05-12T00:09:28.531Z,3.70
2023-05-12T00:11:56.803Z,4.03
2023-05-12T00:14:25.403Z,3.80
2023-05-12T00:16:53.665Z,4.85
2023-05-12T00:19:23.801Z,4.50
2023-05-12T00:21:52.053Z,4.13
2023-05-12T00:24:20.803Z,4.13
2023-05-12T00:26:49.637Z,4.50
2023-05-12T00:29:21.663Z,4.88
2023-05-12T00:31:51.015Z,4.45
2023-05-12T00:34:19.619Z,4.38
2023-05-12T00:36:49.318Z,4.47
2023-05-12T00:39:18.012Z,4.72
2023-05-12T00:41:47.886Z,4.50
2023-05-12T00:44:18.707Z,4.47
2023-05-12T00:46:47.070Z,4.85
2023-05-12T00:49:15.834Z,4.70
2023-05-12T00:51:44.378Z,4.47
2023-05-12T00:54:14.381Z,4.50
2023-05-12T00:56:43.425Z,4.45
2023-05-12T00:59:12.219Z,4.20
2023-05-12T01:01:40.541Z,4.28
2023-05-12T01:04:09.224Z,4.30
2023-05-12T01:06:40.421Z,4.15
2023-05-12T01:09:09.385Z,4.03
2023-05-12T01:11:39.106Z,3.80
2023-05-12T01:14:07.789Z,4.15
2023-05-12T01:16:37.910Z,4.13
2023-05-12T01:19:08.309Z,3.95
2023-05-12T01:21:37.208Z,3.70
2023-05-12T01:24:08.933Z,4.55
2023-05-12T01:29:07.710Z,4.63
2023-05-12T01:31:36.188Z,4.65
2023-05-12T01:34:04.944Z,4.75
2023-05-12T01:36:34.278Z,4.40
2023-05-12T01:39:02.862Z,4.60
2023-05-12T01:41:31.206Z,4.47
2023-05-12T01:44:01.651Z,4.53
2023-05-12T01:46:30.028Z,4.43
2023-05-12T01:48:58.696Z,4.05
2023-05-12T01:51:26.844Z,4.20
2023-05-12T01:53:55.526Z,4.60
2023-05-12T01:56:24.015Z,4.47
2023-05-12T01:58:52.469Z,4.82
2023-05-12T02:01:23.504Z,4.40
2023-05-12T02:03:52.292Z,4.53
2023-05-12T02:06:21.502Z,4.30
2023-05-12T02:08:51.051Z,4.63
2023-05-12T02:11:19.484Z,4.38
2023-05-12T02:13:48.176Z,4.60
2023-05-12T02:16:17.155Z,4.95
2023-05-12T02:18:47.213Z,4.40
2023-05-12T02:21:15.640Z,5.10
2023-05-12T02:23:44.133Z,4.80
2023-05-12T02:26:12.443Z,4.82
2023-05-12T02:28:41.645Z,5.05
2023-05-12T02:31:09.976Z,4.82
2023-05-12T02:33:38.621Z,4.40
2023-05-12T02:36:09.528Z,5.75
2023-05-12T02:38:39.956Z,4.88
2023-05-12T02:41:09.263Z,4.88
2023-05-12T02:43:37.704Z,4.82
2023-05-12T02:46:06.506Z,4.90
2023-05-12T02:48:35.128Z,5.07
2023-05-12T02:51:03.514Z,5.13
2023-05-12T02:53:33.824Z,4.90
2023-05-12T02:56:02.556Z,4.63
2023-05-12T02:58:31.218Z,5.32
2023-05-12T03:01:09.420Z,4.63
2023-05-12T03:03:39.733Z,4.95
2023-05-12T03:06:08.889Z,5.15
2023-05-12T03:08:38.725Z,5.15
2023-05-12T03:11:07.296Z,5.70
2023-05-12T03:13:36.019Z,5.25
2023-05-12T03:16:04.607Z,5.82
2023-05-12T03:18:33.325Z,5.35
2023-05-12T03:21:04.732Z,5.63
2023-05-12T03:23:33.310Z,5.70
2023-05-12T03:26:03.154Z,5.90
2023-05-12T03:28:32.723Z,5.30
2023-05-12T03:31:01.366Z,5.15
2023-05-12T03:33:30.413Z,4.90
2023-05-12T03:35:58.880Z,5.35
2023-05-12T03:38:27.605Z,5.43
2023-05-12T03:41:06.364Z,5.07
2023-05-12T03:43:36.974Z,5.35
2023-05-12T03:46:05.540Z,5.80
2023-05-12T03:48:34.199Z,5.07
2023-05-12T03:51:02.486Z,5.13
2023-05-12T03:53:31.722Z,5.60
2023-05-12T03:56:04.886Z,5.80
2023-05-12T03:58:35.300Z,5.88
2023-05-12T04:01:03.734Z,5.20
2023-05-12T04:03:32.657Z,5.15
2023-05-12T04:06:01.930Z,5.60
2023-05-12T04:08:30.854Z,6.38
2023-05-12T04:10:59.811Z,5.30
2023-05-12T04:13:28.979Z,5.38
2023-05-12T04:15:59.713Z,4.97
2023-05-12T04:18:29.232Z,6.18
2023-05-12T04:20:57.781Z,5.07
2023-05-12T04:23:26.940Z,5.80
2023-05-12T04:25:55.312Z,5.95
2023-05-12T04:28:24.260Z,5.50
2023-05-12T04:30:52.689Z,5.55
2023-05-12T04:33:22.821Z,4.95
2023-05-12T04:35:50.967Z,5.13
2023-05-12T04:38:19.580Z,4.80
2023-05-12T04:40:47.741Z,5.00
2023-05-12T04:45:47.431Z,5.00
2023-05-12T04:48:16.285Z,5.00
2023-05-12T04:50:46.207Z,4.95
2023-05-12T04:53:14.844Z,5.32
2023-05-12T04:55:46.097Z,5.03
2023-05-12T05:00:44.211Z,5.25
2023-05-12T05:03:13.051Z,4.97
2023-05-12T05:05:41.412Z,5.45
2023-05-12T05:08:11.876Z,5.13
2023-05-12T05:10:40.160Z,5.93
2023-05-12T05:13:08.923Z,5.07
2023-05-12T05:15:37.354Z,6.28
2023-05-12T05:18:06.562Z,4.72
2023-05-12T05:20:35.603Z,5.05
2023-05-12T05:23:04.296Z,4.88
2023-05-12T05:25:34.179Z,4.88
2023-05-12T05:28:02.980Z,4.65
2023-05-12T05:30:31.276Z,4.40
2023-05-12T05:33:00.059Z,5.20
2023-05-12T05:35:28.414Z,5.70
2023-05-12T05:37:57.011Z,5.63
2023-05-12T05:40:25.555Z,5.00
2023-05-12T05:42:55.612Z,5.35
2023-05-12T05:45:23.954Z,5.07
2023-05-12T05:47:53.397Z,5.05
2023-05-12T05:50:21.996Z,4.35
2023-05-12T05:52:50.766Z,4.93
2023-05-12T05:55:19.463Z,4.75
2023-05-12T05:57:49.081Z,4.35
2023-05-12T06:00:19.369Z,4.35
2023-05-12T06:02:48.760Z,3.80
2023-05-12T06:05:18.363Z,3.97
2023-05-12T06:07:47.177Z,4.50
2023-05-12T06:10:15.604Z,3.95
2023-05-12T06:12:44.416Z,3.72
2023-05-12T06:15:12.944Z,3.78
2023-05-12T06:17:43.247Z,3.83
2023-05-12T06:20:13.533Z,4.03
2023-05-12T06:22:44.598Z,3.90
2023-05-12T06:25:13.021Z,4.47
2023-05-12T06:27:41.622Z,3.90
2023-05-12T06:30:12.996Z,3.72
2023-05-12T06:32:44.371Z,4.40
2023-05-12T06:35:13.507Z,3.35
2023-05-12T06:37:45.042Z,3.35
2023-05-12T06:42:41.820Z,3.13
2023-05-12T06:45:11.510Z,3.53
2023-05-12T06:47:40.955Z,3.22
2023-05-12T06:50:11.398Z,3.50
2023-05-12T06:52:40.324Z,3.22
2023-05-12T06:55:09.787Z,2.80
2023-05-12T06:57:38.567Z,3.25
2023-05-12T07:00:08.361Z,3.03
2023-05-12T07:02:37.386Z,3.22
2023-05-12T07:05:06.672Z,3.67
2023-05-12T07:07:36.873Z,4.30
2023-05-12T07:10:06.713Z,3.67
2023-05-12T07:12:35.364Z,3.50
2023-05-12T07:15:04.619Z,3.30
2023-05-12T07:17:33.538Z,3.50
2023-05-12T07:20:01.873Z,2.88
2023-05-12T07:22:32.483Z,2.63
2023-05-12T07:25:02.580Z,2.90
2023-05-12T07:27:31.037Z,3.75
2023-05-12T07:29:59.338Z,3.20
2023-05-12T07:32:28.167Z,2.72
2023-05-12T07:34:56.649Z,3.10
2023-05-12T07:37:25.474Z,3.10
2023-05-12T07:39:53.786Z,3.00
2023-05-12T07:42:24.350Z,3.10
2023-05-12T07:44:52.568Z,3.20
2023-05-12T07:47:21.089Z,3.00
2023-05-12T07:49:49.448Z,2.58
2023-05-12T07:52:18.013Z,2.50
2023-05-12T07:54:46.211Z,2.75
2023-05-12T07:57:14.820Z,2.60
2023-05-12T07:59:44.848Z,2.60
2023-05-12T08:02:13.532Z,2.42
2023-05-12T08:04:43.858Z,2.50
2023-05-12T08:07:13.869Z,2.58
2023-05-12T08:09:42.489Z,2.50
2023-05-12T08:12:11.392Z,2.55
2023-05-12T08:14:39.807Z,2.22
2023-05-12T08:17:11.019Z,2.28
2023-05-12T08:22:07.706Z,2.10
2023-05-12T08:24:36.161Z,2.50
2023-05-12T08:27:05.080Z,2.70
2023-05-12T08:29:33.221Z,2.17
2023-05-12T08:32:01.731Z,2.53
2023-05-12T08:34:31.797Z,1.92
2023-05-12T08:37:00.465Z,2.38
2023-05-12T08:39:31.079Z,2.45
2023-05-12T08:42:07.228Z,2.22
2023-05-12T08:44:35.646Z,2.40
2023-05-12T08:47:06.011Z,2.22
2023-05-12T08:49:38.863Z,2.23
2023-05-12T08:52:09.743Z,2.45
2023-05-12T08:54:48.701Z,1.63
2023-05-12T08:57:24.603Z,2.50
2023-05-12T08:59:55.850Z,2.00
2023-05-12T09:02:35.012Z,1.90
2023-05-12T09:05:11.859Z,2.25
2023-05-12T09:07:44.977Z,2.58
2023-05-12T09:10:32.318Z,2.45
2023-05-12T09:13:05.626Z,1.80
2023-05-12T09:15:37.947Z,2.63
2023-05-12T09:18:06.931Z,1.80
2023-05-12T09:20:36.834Z,1.92
2023-05-12T09:23:19.773Z,2.07
2023-05-12T09:26:01.331Z,1.70
2023-05-12T09:28:37.256Z,2.17
2023-05-12T09:31:16.684Z,1.75
2023-05-12T09:33:45.285Z,2.20
2023-05-12T09:36:18.360Z,1.95
2023-05-12T09:38:47.046Z,1.67
2023-05-12T09:41:15.238Z,2.30
2023-05-12T09:43:47.292Z,2.00
2023-05-12T09:46:15.857Z,1.80
2023-05-12T09:48:44.726Z,2.00
2023-05-12T09:51:18.465Z,1.80
2023-05-12T09:53:47.044Z,1.90
2023-05-12T09:56:16.340Z,2.10
2023-05-12T09:58:45.964Z,1.73
2023-05-12T10:01:22.776Z,1.70
2023-05-12T10:03:55.006Z,1.83
2023-05-12T10:06:29.652Z,1.40
2023-05-12T10:09:05.804Z,1.40
2023-05-12T10:11:35.247Z,1.42
2023-05-12T10:14:03.947Z,1.58
2023-05-12T10:16:33.227Z,1.95
2023-05-12T10:19:02.001Z,1.63
2023-05-12T10:21:31.834Z,1.50
2023-05-12T10:24:00.674Z,1.67
2023-05-12T10:26:29.710Z,1.33
2023-05-12T10:28:58.737Z,1.70
2023-05-12T10:31:28.215Z,1.30
2023-05-12T10:34:00.196Z,1.55
2023-05-12T10:36:29.194Z,1.65
2023-05-12T10:39:06.812Z,1.60
2023-05-12T10:41:36.531Z,1.48
2023-05-12T10:44:05.194Z,1.73
2023-05-12T10:46:33.607Z,1.83
2023-05-12T10:49:04.532Z,1.40
2023-05-12T10:51:34.582Z,1.70
2023-05-12T10:54:06.038Z,1.90
2023-05-12T10:59:17.631Z,1.83
2023-05-12T11:01:58.900Z,1.52
2023-05-12T11:04:41.082Z,1.83
2023-05-12T11:07:10.571Z,1.90
2023-05-12T11:12:26.771Z,1.90
2023-05-12T11:14:56.809Z,2.33
2023-05-12T11:17:25.658Z,1.90
2023-05-12T11:19:55.579Z,2.00
2023-05-12T11:22:25.207Z,1.70
2023-05-12T11:24:55.401Z,2.00
2023-05-12T11:27:24.403Z,1.88
2023-05-12T11:30:01.064Z,2.35
2023-05-12T11:32:29.996Z,1.70
2023-05-12T11:35:10.843Z,1.60
2023-05-12T11:37:40.350Z,2.20
2023-05-12T11:40:18.198Z,1.70
2023-05-12T11:42:49.257Z,2.00
2023-05-12T11:45:22.871Z,1.38
2023-05-12T11:47:51.546Z,2.13
2023-05-12T11:50:25.918Z,1.75
2023-05-12T11:52:54.763Z,1.83
2023-05-12T11:55:25.685Z,2.00
2023-05-12T11:57:59.355Z,1.50
2023-05-12T12:00:32.387Z,2.17
2023-05-12T12:03:09.008Z,1.63
2023-05-12T12:05:38.857Z,1.90
2023-05-12T12:08:09.076Z,2.60
2023-05-12T12:10:38.986Z,2.10
2023-05-12T12:13:07.521Z,2.20
2023-05-12T12:15:36.125Z,1.77
2023-05-12T12:18:04.493Z,1.98
2023-05-12T12:20:33.368Z,1.88
2023-05-12T12:23:01.755Z,1.90
2023-05-12T12:25:31.404Z,2.00
2023-05-12T12:28:01.121Z,1.60
2023-05-12T12:30:29.882Z,2.30
2023-05-12T12:32:58.320Z,1.60
2023-05-12T12:35:27.026Z,1.63
2023-05-12T12:37:55.662Z,2.25
2023-05-12T12:40:24.251Z,2.28
2023-05-12T12:42:52.673Z,1.60
2023-05-12T12:45:22.798Z,1.50
2023-05-12T12:47:54.967Z,1.85
2023-05-12T12:50:25.248Z,1.40
2023-05-12T12:52:55.316Z,1.80
2023-05-12T12:55:24.301Z,1.77
2023-05-12T12:57:52.816Z,1.85
2023-05-12T13:00:24.484Z,2.10
2023-05-12T13:02:52.911Z,2.10
2023-05-12T13:05:22.001Z,2.08
2023-05-12T13:07:51.542Z,1.95
2023-05-12T13:10:20.269Z,1.73
2023-05-12T13:12:48.862Z,2.10
2023-05-12T13:15:19.406Z,1.48
2023-05-12T13:17:49.685Z,1.55
2023-05-12T13:20:18.360Z,1.80
2023-05-12T13:22:46.928Z,1.80
2023-05-12T13:25:15.809Z,1.60
2023-05-12T13:27:44.288Z,1.70
2023-05-12T13:30:13.897Z,2.05
2023-05-12T13:32:42.746Z,1.95
2023-05-12T13:35:13.706Z,1.48
2023-05-12T13:37:42.053Z,2.25
2023-05-12T13:40:11.644Z,1.63
2023-05-12T13:42:40.170Z,1.60
2023-05-12T13:45:10.532Z,2.40
2023-05-12T13:47:39.425Z,1.88
2023-05-12T13:50:09.239Z,1.75
2023-05-12T13:52:39.381Z,1.63
2023-05-12T13:55:08.400Z,1.60
2023-05-12T13:57:36.701Z,2.13
2023-05-12T14:00:08.633Z,2.00
2023-05-12T14:02:37.660Z,1.60
2023-05-12T14:05:07.754Z,1.90
2023-05-12T14:07:36.070Z,1.70
2023-05-12T14:10:07.257Z,1.70
2023-05-12T14:12:37.111Z,2.17
2023-05-12T14:15:29.101Z,1.67
2023-05-12T14:17:55.495Z,1.88
2023-05-12T14:20:24.681Z,2.00
2023-05-12T14:22:55.652Z,1.90
2023-05-12T14:27:53.883Z,1.70
2023-05-12T14:30:22.891Z,1.60
2023-05-12T14:32:53.320Z,1.95
2023-05-12T14:35:22.434Z,2.15
2023-05-12T14:37:51.123Z,1.70
2023-05-12T14:40:19.685Z,2.30
2023-05-12T14:42:49.561Z,1.95
2023-05-12T14:45:18.370Z,1.95
2023-05-12T14:47:47.265Z,1.80
2023-05-12T14:50:15.978Z,1.80
2023-05-12T14:52:44.639Z,2.30
2023-05-12T14:55:13.937Z,1.85
2023-05-12T14:57:43.278Z,1.83
2023-05-12T15:00:16.125Z,2.08
2023-05-12T15:02:45.655Z,1.90
2023-05-12T15:05:15.336Z,1.67
2023-05-12T15:07:43.923Z,1.77
2023-05-12T15:10:13.025Z,1.92
2023-05-12T15:12:41.374Z,1.95
2023-05-12T15:15:12.060Z,1.83
2023-05-12T15:17:41.763Z,2.10
2023-05-12T15:20:11.126Z,1.90
2023-05-12T15:22:39.409Z,1.77
2023-05-12T15:25:09.702Z,2.00
2023-05-12T15:27:38.343Z,1.75
2023-05-12T15:30:08.366Z,1.70
2023-05-12T15:32:36.897Z,1.80
2023-05-12T15:35:07.661Z,1.80
2023-05-12T15:37:36.119Z,1.80
2023-05-12T15:40:05.562Z,1.60
2023-05-12T15:42:33.891Z,2.22
2023-05-12T15:45:02.660Z,1.48
2023-05-12T15:47:31.178Z,1.55
2023-05-12T15:50:00.013Z,1.65
2023-05-12T15:52:30.130Z,1.52
2023-05-12T15:54:58.855Z,1.50
2023-05-12T15:57:27.327Z,1.70
2023-05-12T15:59:59.902Z,1.73
2023-05-12T16:02:29.697Z,1.48
2023-05-12T16:04:58.403Z,1.67
2023-05-12T16:07:29.453Z,1.80
2023-05-12T16:09:59.963Z,1.73
2023-05-12T16:12:28.225Z,1.88
2023-05-12T16:14:56.756Z,1.90
2023-05-12T16:17:25.095Z,1.88
2023-05-12T16:19:56.326Z,1.85
2023-05-12T16:22:25.329Z,2.08
2023-05-12T16:24:55.755Z,1.65
2023-05-12T16:27:25.886Z,2.08
2023-05-12T16:29:54.657Z,2.08
2023-05-12T16:32:23.612Z,2.00
2023-05-12T16:34:52.228Z,1.85
2023-05-12T16:37:20.521Z,1.77
2023-05-12T16:39:49.045Z,1.70
2023-05-12T16:42:17.227Z,1.50
2023-05-12T16:44:47.420Z,1.90
2023-05-12T16:47:15.819Z,1.80
2023-05-12T16:49:44.412Z,1.70
2023-05-12T16:52:12.759Z,2.10
2023-05-12T16:54:42.291Z,1.88
2023-05-12T16:57:10.706Z,1.90
2023-05-12T16:59:39.820Z,3.03
2023-05-12T17:02:09.839Z,1.70
2023-05-12T17:04:38.781Z,1.93
2023-05-12T17:07:07.524Z,2.00
2023-05-12T17:09:36.490Z,1.90
2023-05-12T17:12:06.952Z,1.55
2023-05-12T17:14:35.819Z,2.00
2023-05-12T17:17:04.637Z,2.30
2023-05-12T17:19:34.883Z,1.75
2023-05-12T17:22:03.798Z,2.20
2023-05-12T17:24:32.606Z,1.58
2023-05-12T17:27:01.355Z,1.92
2023-05-12T17:29:29.958Z,1.90
2023-05-12T17:32:00.177Z,1.70
2023-05-12T17:34:28.941Z,2.05
2023-05-12T17:36:59.365Z,1.60
2023-05-12T17:39:27.924Z,1.60
2023-05-12T17:41:56.224Z,1.98
2023-05-12T17:44:24.805Z,1.90
2023-05-12T17:46:53.151Z,2.17
2023-05-12T17:49:21.816Z,2.20
2023-05-12T17:51:50.686Z,2.38
2023-05-12T17:54:20.700Z,2.13
2023-05-12T17:56:49.096Z,2.20
2023-05-12T17:59:17.800Z,2.50
2023-05-12T18:01:46.142Z,2.78
2023-05-12T18:04:14.748Z,2.40
2023-05-12T18:06:43.960Z,2.28
2023-05-12T18:09:13.747Z,2.20
2023-05-12T18:11:43.955Z,2.00
2023-05-12T18:14:12.513Z,2.30
2023-05-12T18:16:41.091Z,2.10
2023-05-12T18:19:09.911Z,1.85
2023-05-12T18:21:38.325Z,2.00
2023-05-12T18:24:07.552Z,2.33
2023-05-12T18:26:35.883Z,2.05
2023-05-12T18:29:06.092Z,2.25
2023-05-12T18:31:36.247Z,2.15
2023-05-12T18:34:04.818Z,2.13
2023-05-12T18:36:33.399Z,2.08
2023-05-12T18:39:02.020Z,2.10
2023-05-12T18:41:30.423Z,2.15
2023-05-12T18:43:58.984Z,2.50
2023-05-12T18:46:28.675Z,2.45
2023-05-12T18:48:57.329Z,2.05
2023-05-12T18:51:25.658Z,2.42
2023-05-12T18:53:54.247Z,2.33
2023-05-12T18:56:22.711Z,2.28
2023-05-12T18:58:51.308Z,2.55
2023-05-12T19:01:19.972Z,2.53
2023-05-12T19:03:49.860Z,3.13
2023-05-12T19:06:18.274Z,2.42
2023-05-12T19:08:47.153Z,2.83
2023-05-12T19:11:15.395Z,2.60
2023-05-12T19:13:45.630Z,2.60
2023-05-12T19:16:14.035Z,2.70
2023-05-12T19:18:42.741Z,2.97
2023-05-12T19:21:12.663Z,2.55
2023-05-12T19:23:41.260Z,2.90
2023-05-12T19:26:10.953Z,2.40
2023-05-12T19:28:39.499Z,2.45
2023-05-12T19:31:07.816Z,2.58
2023-05-12T19:33:36.306Z,2.40
2023-05-12T19:36:04.622Z,2.42
2023-05-12T19:38:35.071Z,2.67
2023-05-12T19:41:03.249Z,2.42
2023-05-12T19:43:32.032Z,2.38
2023-05-12T19:46:00.522Z,2.92
2023-05-12T19:48:29.206Z,3.03
2023-05-12T19:50:57.635Z,5.60
2023-05-12T19:53:26.882Z,4.10
2023-05-12T19:55:57.423Z,5.07
2023-05-12T19:58:26.525Z,3.47
2023-05-12T20:00:55.868Z,2.83
2023-05-12T20:03:24.726Z,3.60
2023-05-12T20:05:53.210Z,3.67
2023-05-12T20:08:22.219Z,3.20
2023-05-12T20:10:50.602Z,3.03
2023-05-12T20:13:20.579Z,3.28
2023-05-12T20:15:48.812Z,3.15
2023-05-12T20:18:17.568Z,3.78
2023-05-12T20:20:46.023Z,3.60
2023-05-12T20:23:14.588Z,3.72
2023-05-12T20:25:43.398Z,3.47
2023-05-12T20:28:11.991Z,3.78
2023-05-12T20:30:41.950Z,3.00
2023-05-12T20:33:10.453Z,3.47
2023-05-12T20:35:39.049Z,2.85
2023-05-12T20:38:07.752Z,3.55
2023-05-12T20:40:36.171Z,3.65
2023-05-12T20:43:04.761Z,3.20
2023-05-12T20:45:33.370Z,3.88
2023-05-12T20:48:04.845Z,3.25
2023-05-12T20:50:33.113Z,3.10
2023-05-12T20:53:02.003Z,3.28
2023-05-12T20:55:30.306Z,3.20
2023-05-12T20:57:59.047Z,3.50
2023-05-12T21:00:27.246Z,3.25
2023-05-12T21:02:56.218Z,3.35
2023-05-12T21:05:25.936Z,3.25
2023-05-12T21:07:54.677Z,3.80
2023-05-12T21:10:23.350Z,3.72
2023-05-12T21:12:52.317Z,3.10
2023-05-12T21:15:20.708Z,3.00
2023-05-12T21:17:49.782Z,3.20
2023-05-12T21:20:18.199Z,2.92
2023-05-12T21:22:48.433Z,3.10
2023-05-12T21:25:16.728Z,3.50
2023-05-12T21:27:47.496Z,2.90
2023-05-12T21:30:16.273Z,3.20
2023-05-12T21:32:44.905Z,3.38
2023-05-12T21:35:13.626Z,2.70
2023-05-12T21:37:42.264Z,3.45
2023-05-12T21:40:13.262Z,2.90
2023-05-12T21:42:41.871Z,3.10
2023-05-12T21:45:11.104Z,3.40
2023-05-12T21:47:39.967Z,3.40
2023-05-12T21:50:08.530Z,3.58
2023-05-12T21:52:37.400Z,4.50
2023-05-12T21:55:06.447Z,4.00
2023-05-12T21:57:39.806Z,3.78
2023-05-12T22:00:10.255Z,3.42
2023-05-12T22:02:38.716Z,3.67
2023-05-12T22:05:08.725Z,3.75
2023-05-12T22:07:37.324Z,3.40
2023-05-12T22:10:06.184Z,3.72
2023-05-12T22:12:36.907Z,3.33
2023-05-12T22:15:05.969Z,3.88
2023-05-12T22:17:34.862Z,3.53
2023-05-12T22:20:04.248Z,3.95
2023-05-12T22:22:33.042Z,3.50
2023-05-12T22:25:01.301Z,3.50
2023-05-12T22:27:29.964Z,4.07
2023-05-12T22:29:59.930Z,3.35
2023-05-12T22:32:28.499Z,3.47
2023-05-12T22:34:56.847Z,3.72
2023-05-12T22:37:25.873Z,4.28
2023-05-12T22:39:54.788Z,3.50
2023-05-12T22:42:23.706Z,3.40
2023-05-12T22:44:52.009Z,3.30
2023-05-12T22:47:22.151Z,3.33
2023-05-12T22:49:50.632Z,3.58
2023-05-12T22:52:19.126Z,3.20
2023-05-12T22:54:47.458Z,3.08
2023-05-12T22:57:15.931Z,3.42
2023-05-12T22:59:44.393Z,3.58
2023-05-12T23:02:12.863Z,3.03
2023-05-12T23:04:42.562Z,3.45
2023-05-12T23:10:03.191Z,3.53
2023-05-12T23:12:36.453Z,3.47
2023-05-12T23:15:06.054Z,3.45
2023-05-12T23:17:34.675Z,3.50
2023-05-12T23:20:04.814Z,3.30
2023-05-12T23:22:33.430Z,2.92
2023-05-12T23:25:02.201Z,3.35
2023-05-12T23:27:30.630Z,3.20
2023-05-12T23:29:59.210Z,3.45
2023-05-12T23:32:27.896Z,3.83
2023-05-12T23:34:56.473Z,3.92
2023-05-12T23:37:26.990Z,3.35
2023-05-12T23:39:55.247Z,3.65
2023-05-12T23:42:23.929Z,3.60
2023-05-12T23:44:52.101Z,4.05
2023-05-12T23:47:20.818Z,3.42
2023-05-12T23:49:49.054Z,3.38
2023-05-12T23:52:21.002Z,3.40
2023-05-12T23:54:50.859Z,3.60
2023-05-12T23:57:19.425Z,3.80
2023-05-12T23:59:48.242Z,4.05
